createdAt,value
2023-08-06T00:00:28.710Z,99.99
2023-08-06T00:01:28.707Z,99.99
2023-08-06T00:02:28.746Z,99.99
2023-08-06T00:03:28.756Z,99.99
2023-08-06T00:04:28.672Z,99.99
2023-08-06T00:05:28.638Z,99.99
2023-08-06T00:06:28.626Z,99.99
2023-08-06T00:07:28.611Z,99.99
2023-08-06T00:08:28.607Z,99.99
2023-08-06T00:09:28.630Z,99.99
2023-08-06T00:10:28.581Z,99.99
2023-08-06T00:11:28.571Z,99.99
2023-08-06T00:12:28.561Z,99.99
2023-08-06T00:13:28.545Z,99.99
2023-08-06T00:14:28.541Z,99.99
2023-08-06T00:15:28.552Z,99.99
2023-08-06T00:16:28.533Z,99.99
2023-08-06T00:17:28.549Z,99.99
2023-08-06T00:18:28.557Z,99.99
2023-08-06T00:19:28.505Z,99.99
2023-08-06T00:20:28.485Z,99.99
2023-08-06T00:21:28.487Z,99.99
2023-08-06T00:22:28.452Z,99.99
2023-08-06T00:23:28.449Z,99.99
2023-08-06T00:24:28.425Z,99.99
2023-08-06T00:25:28.418Z,99.99
2023-08-06T00:26:28.427Z,99.99
2023-08-06T00:27:28.410Z,99.99
2023-08-06T00:28:28.392Z,99.99
2023-08-06T00:29:28.362Z,99.99
2023-08-06T00:30:28.356Z,99.99
2023-08-06T00:31:28.345Z,99.99
2023-08-06T00:32:28.406Z,99.99
2023-08-06T00:33:28.352Z,99.99
2023-08-06T00:34:28.306Z,99.99
2023-08-06T00:35:28.296Z,99.99
2023-08-06T00:36:28.288Z,99.99
2023-08-06T00:37:28.281Z,99.99
2023-08-06T00:38:28.289Z,99.99
2023-08-06T00:39:28.256Z,99.99
2023-08-06T00:40:28.239Z,99.99
2023-08-06T00:41:28.230Z,99.99
2023-08-06T00:42:28.223Z,99.99
2023-08-06T00:43:28.258Z,99.99
2023-08-06T00:44:28.201Z,99.99
2023-08-06T00:45:28.191Z,99.99
2023-08-06T00:46:28.220Z,99.99
2023-08-06T00:47:28.254Z,99.99
2023-08-06T00:48:28.175Z,99.99
2023-08-06T00:49:28.164Z,99.99
2023-08-06T00:50:28.137Z,99.99
2023-08-06T00:51:28.120Z,99.99
2023-08-06T00:52:28.135Z,99.99
2023-08-06T00:53:28.125Z,99.99
2023-08-06T00:54:28.182Z,99.99
2023-08-06T00:55:28.135Z,99.99
2023-08-06T00:56:28.099Z,99.99
2023-08-06T00:57:28.155Z,99.99
2023-08-06T00:58:28.053Z,99.99
2023-08-06T00:59:28.078Z,99.99
2023-08-06T01:00:28.134Z,99.99
2023-08-06T01:01:28.030Z,99.99
2023-08-06T01:02:28.073Z,99.99
2023-08-06T01:03:27.986Z,99.99
2023-08-06T01:04:27.976Z,99.99
2023-08-06T01:05:27.987Z,99.99
2023-08-06T01:06:27.983Z,99.99
2023-08-06T01:07:27.945Z,99.99
2023-08-06T01:08:27.936Z,99.99
2023-08-06T01:09:27.924Z,99.99
2023-08-06T01:10:27.913Z,99.99
2023-08-06T01:11:27.941Z,99.99
2023-08-06T01:12:27.899Z,99.99
2023-08-06T01:13:27.893Z,99.99
2023-08-06T01:14:27.871Z,99.99
2023-08-06T01:15:27.856Z,99.99
2023-08-06T01:16:27.890Z,99.99
2023-08-06T01:17:27.971Z,99.99
2023-08-06T01:18:27.827Z,99.99
2023-08-06T01:19:27.809Z,99.99
2023-08-06T01:20:27.803Z,99.99
2023-08-06T01:21:27.811Z,99.99
2023-08-06T01:22:27.785Z,99.99
2023-08-06T01:23:27.787Z,99.99
2023-08-06T01:24:27.767Z,99.99
2023-08-06T01:25:27.742Z,99.99
2023-08-06T01:26:27.740Z,99.99
2023-08-06T01:27:27.720Z,99.99
2023-08-06T01:28:27.738Z,99.99
2023-08-06T01:29:27.707Z,99.99
2023-08-06T01:30:27.695Z,99.99
2023-08-06T01:31:27.674Z,99.99
2023-08-06T01:32:27.679Z,99.99
2023-08-06T01:33:27.676Z,99.99
2023-08-06T01:34:27.665Z,99.99
2023-08-06T01:35:27.630Z,99.99
2023-08-06T01:36:27.625Z,99.99
2023-08-06T01:37:27.612Z,99.99
2023-08-06T01:38:27.603Z,99.99
2023-08-06T01:39:27.621Z,99.99
2023-08-06T01:40:27.588Z,99.99
2023-08-06T01:41:27.583Z,99.99
2023-08-06T01:42:27.553Z,99.99
2023-08-06T01:43:27.544Z,99.99
2023-08-06T01:44:27.531Z,99.99
2023-08-06T01:45:27.539Z,99.99
2023-08-06T01:46:27.553Z,99.99
2023-08-06T01:47:27.515Z,99.99
2023-08-06T01:48:27.490Z,99.99
2023-08-06T01:49:27.495Z,99.99
2023-08-06T01:50:27.466Z,99.99
2023-08-06T01:51:27.451Z,99.99
2023-08-06T01:52:27.446Z,99.99
2023-08-06T01:53:27.426Z,99.99
2023-08-06T01:54:27.427Z,99.99
2023-08-06T01:55:27.441Z,99.99
2023-08-06T01:56:27.460Z,99.99
2023-08-06T01:57:27.386Z,99.99
2023-08-06T01:58:27.373Z,99.99
2023-08-06T01:59:27.361Z,99.99
2023-08-06T02:00:27.351Z,99.99
2023-08-06T02:01:27.400Z,99.99
2023-08-06T02:02:27.347Z,99.99
2023-08-06T02:03:27.354Z,99.99
2023-08-06T02:04:27.422Z,99.99
2023-08-06T02:05:27.293Z,99.99
2023-08-06T02:06:27.331Z,99.99
2023-08-06T02:07:27.275Z,99.99
2023-08-06T02:08:27.259Z,99.99
2023-08-06T02:09:27.267Z,99.99
2023-08-06T02:10:27.259Z,99.99
2023-08-06T02:11:27.238Z,99.99
2023-08-06T02:12:27.231Z,99.99
2023-08-06T02:13:27.213Z,99.99
2023-08-06T02:14:27.190Z,99.99
2023-08-06T02:15:27.215Z,99.99
2023-08-06T02:16:27.208Z,99.99
2023-08-06T02:17:27.175Z,99.99
2023-08-06T02:18:27.173Z,99.99
2023-08-06T02:19:27.144Z,99.99
2023-08-06T02:20:27.129Z,99.99
2023-08-06T02:21:27.134Z,99.99
2023-08-06T02:22:27.104Z,99.99
2023-08-06T02:23:27.205Z,99.99
2023-08-06T02:24:27.082Z,99.99
2023-08-06T02:25:27.090Z,99.99
2023-08-06T02:26:27.093Z,99.99
2023-08-06T02:27:27.051Z,99.99
2023-08-06T02:28:27.036Z,99.99
2023-08-06T02:29:27.051Z,99.99
2023-08-06T02:30:27.028Z,99.99
2023-08-06T02:31:27.031Z,99.99
2023-08-06T02:32:27.021Z,99.99
2023-08-06T02:33:26.996Z,99.99
2023-08-06T02:34:26.994Z,99.99
2023-08-06T02:35:27.000Z,99.99
2023-08-06T02:36:26.946Z,99.99
2023-08-06T02:37:26.939Z,99.99
2023-08-06T02:38:26.926Z,99.99
2023-08-06T02:39:26.957Z,99.99
2023-08-06T02:40:26.908Z,99.99
2023-08-06T02:41:26.914Z,99.99
2023-08-06T02:42:26.880Z,99.99
2023-08-06T02:43:26.873Z,99.99
2023-08-06T02:44:26.858Z,99.99
2023-08-06T02:45:26.894Z,99.99
2023-08-06T02:46:26.832Z,99.99
2023-08-06T02:47:26.859Z,99.99
2023-08-06T02:48:26.814Z,99.99
2023-08-06T02:49:26.809Z,99.99
2023-08-06T02:50:26.791Z,99.99
2023-08-06T02:51:26.809Z,99.99
2023-08-06T02:52:26.778Z,99.99
2023-08-06T02:53:26.775Z,99.99
2023-08-06T02:54:26.753Z,99.99
2023-08-06T02:55:26.747Z,99.99
2023-08-06T02:56:26.728Z,99.99
2023-08-06T02:57:26.741Z,99.99
2023-08-06T02:58:26.714Z,99.99
2023-08-06T02:59:26.690Z,99.99
2023-08-06T03:00:26.680Z,99.99
2023-08-06T03:01:26.699Z,99.99
2023-08-06T03:02:26.718Z,99.99
2023-08-06T03:03:26.652Z,99.99
2023-08-06T03:04:26.674Z,99.99
2023-08-06T03:05:26.633Z,99.99
2023-08-06T03:06:26.617Z,99.99
2023-08-06T03:07:26.615Z,99.99
2023-08-06T03:08:26.613Z,99.99
2023-08-06T03:09:26.593Z,99.99
2023-08-06T03:10:26.576Z,99.99
2023-08-06T03:11:26.565Z,99.99
2023-08-06T03:12:26.552Z,99.99
2023-08-06T03:13:26.541Z,99.99
2023-08-06T03:14:26.577Z,99.99
2023-08-06T03:15:26.519Z,99.99
2023-08-06T03:16:26.539Z,99.99
2023-08-06T03:17:26.507Z,99.99
2023-08-06T03:18:26.495Z,99.99
2023-08-06T03:19:26.476Z,99.99
2023-08-06T03:20:26.496Z,99.99
2023-08-06T03:21:26.460Z,99.99
2023-08-06T03:22:26.444Z,99.99
2023-08-06T03:23:26.428Z,99.99
2023-08-06T03:24:26.435Z,99.99
2023-08-06T03:25:26.430Z,99.99
2023-08-06T03:26:26.396Z,99.99
2023-08-06T03:27:26.385Z,99.99
2023-08-06T03:28:26.369Z,99.99
2023-08-06T03:29:26.462Z,99.99
2023-08-06T03:30:26.377Z,99.99
2023-08-06T03:31:26.377Z,99.99
2023-08-06T03:32:26.335Z,99.99
2023-08-06T03:33:26.321Z,99.99
2023-08-06T03:34:26.301Z,99.99
2023-08-06T03:35:26.295Z,99.99
2023-08-06T03:36:26.318Z,99.99
2023-08-06T03:37:26.274Z,99.99
2023-08-06T03:38:26.261Z,99.99
2023-08-06T03:39:26.254Z,99.99
2023-08-06T03:40:26.237Z,99.99
2023-08-06T03:41:26.237Z,99.99
2023-08-06T03:42:26.235Z,99.99
2023-08-06T03:43:26.219Z,99.99
2023-08-06T03:44:26.191Z,99.99
2023-08-06T03:45:26.179Z,99.99
2023-08-06T03:46:26.203Z,99.99
2023-08-06T03:47:26.218Z,99.99
2023-08-06T03:48:26.146Z,99.99
2023-08-06T03:49:26.135Z,99.99
2023-08-06T03:50:26.137Z,99.99
2023-08-06T03:51:26.110Z,99.99
2023-08-06T03:52:26.141Z,99.99
2023-08-06T03:53:26.093Z,99.99
2023-08-06T03:54:26.091Z,99.99
2023-08-06T03:55:26.079Z,99.99
2023-08-06T03:56:26.057Z,99.99
2023-08-06T03:57:26.046Z,99.99
2023-08-06T03:58:26.059Z,99.99
2023-08-06T03:59:26.020Z,99.99
2023-08-06T04:00:26.014Z,99.99
2023-08-06T04:01:26.014Z,99.99
2023-08-06T04:02:26.006Z,99.99
2023-08-06T04:03:26.146Z,99.99
2023-08-06T04:04:25.976Z,99.99
2023-08-06T04:05:25.959Z,99.99
2023-08-06T04:06:25.951Z,99.99
2023-08-06T04:07:25.934Z,99.99
2023-08-06T04:08:25.965Z,99.99
2023-08-06T04:09:25.914Z,99.99
2023-08-06T04:10:25.903Z,99.99
2023-08-06T04:11:25.891Z,99.99
2023-08-06T04:12:25.883Z,99.99
2023-08-06T04:13:25.879Z,99.99
2023-08-06T04:14:25.883Z,99.99
2023-08-06T04:15:25.874Z,99.99
2023-08-06T04:16:25.912Z,99.99
2023-08-06T04:17:25.846Z,99.99
2023-08-06T04:18:26.573Z,99.99
2023-08-06T04:19:25.804Z,99.99
2023-08-06T04:20:25.795Z,99.99
2023-08-06T04:21:25.822Z,99.99
2023-08-06T04:22:25.767Z,99.99
2023-08-06T04:23:25.767Z,99.99
2023-08-06T04:24:25.749Z,99.99
2023-08-06T04:25:25.734Z,99.99
2023-08-06T04:26:25.745Z,99.99
2023-08-06T04:27:25.738Z,99.99
2023-08-06T04:28:25.711Z,99.99
2023-08-06T04:29:25.690Z,99.99
2023-08-06T04:30:25.688Z,99.99
2023-08-06T04:31:25.669Z,99.99
2023-08-06T04:32:25.667Z,99.99
2023-08-06T04:33:25.673Z,99.99
2023-08-06T04:34:25.648Z,99.99
2023-08-06T04:35:25.621Z,99.99
2023-08-06T04:36:25.637Z,99.99
2023-08-06T04:37:25.602Z,99.99
2023-08-06T04:38:25.622Z,99.99
2023-08-06T04:39:25.583Z,99.99
2023-08-06T04:40:25.595Z,99.99
2023-08-06T04:41:25.573Z,99.99
2023-08-06T04:42:25.544Z,99.99
2023-08-06T04:43:25.584Z,99.99
2023-08-06T04:44:25.528Z,99.99
2023-08-06T04:45:25.596Z,99.99
2023-08-06T04:46:25.557Z,99.99
2023-08-06T04:47:25.514Z,99.99
2023-08-06T04:48:25.478Z,99.99
2023-08-06T04:49:25.465Z,99.99
2023-08-06T04:50:25.463Z,99.99
2023-08-06T04:51:25.442Z,99.99
2023-08-06T04:52:25.456Z,99.99
2023-08-06T04:53:25.428Z,99.99
2023-08-06T04:54:25.409Z,99.99
2023-08-06T04:55:25.427Z,99.99
2023-08-06T04:56:25.394Z,99.99
2023-08-06T04:57:25.374Z,99.99
2023-08-06T04:58:25.411Z,99.99
2023-08-06T04:59:25.362Z,99.99
2023-08-06T05:00:25.340Z,99.99
2023-08-06T05:01:25.366Z,99.99
2023-08-06T05:02:25.358Z,99.99
2023-08-06T05:03:25.381Z,99.99
2023-08-06T05:04:25.327Z,99.99
2023-08-06T05:05:25.332Z,99.99
2023-08-06T05:06:25.279Z,99.99
2023-08-06T05:07:25.289Z,99.99
2023-08-06T05:08:25.263Z,99.99
2023-08-06T05:09:25.247Z,99.99
2023-08-06T05:10:25.293Z,99.99
2023-08-06T05:11:25.218Z,99.99
2023-08-06T05:12:25.224Z,99.99
2023-08-06T05:13:25.300Z,99.99
2023-08-06T05:14:25.195Z,99.99
2023-08-06T05:15:25.197Z,99.99
2023-08-06T05:16:25.177Z,99.99
2023-08-06T05:17:25.182Z,99.99
2023-08-06T05:18:25.175Z,99.99
2023-08-06T05:19:25.136Z,99.99
2023-08-06T05:20:25.139Z,99.99
2023-08-06T05:21:25.117Z,99.99
2023-08-06T05:22:25.131Z,99.99
2023-08-06T05:23:25.102Z,99.99
2023-08-06T05:24:25.079Z,99.99
2023-08-06T05:25:25.066Z,99.99
2023-08-06T05:26:25.061Z,99.99
2023-08-06T05:27:25.046Z,99.99
2023-08-06T05:28:25.066Z,99.99
2023-08-06T05:29:25.027Z,99.99
2023-08-06T05:30:25.013Z,99.99
2023-08-06T05:31:25.022Z,99.99
2023-08-06T05:32:25.051Z,99.99
2023-08-06T05:33:24.975Z,99.99
2023-08-06T05:34:24.968Z,99.99
2023-08-06T05:35:24.953Z,99.99
2023-08-06T05:36:24.946Z,99.99
2023-08-06T05:37:24.928Z,99.99
2023-08-06T05:38:24.944Z,99.99
2023-08-06T05:39:24.911Z,99.99
2023-08-06T05:40:24.896Z,99.99
2023-08-06T05:41:24.893Z,99.99
2023-08-06T05:42:24.877Z,99.99
2023-08-06T05:43:24.865Z,99.99
2023-08-06T05:44:24.875Z,99.99
2023-08-06T05:45:24.846Z,99.99
2023-08-06T05:46:24.846Z,99.99
2023-08-06T05:47:24.848Z,99.99
2023-08-06T05:48:24.817Z,99.99
2023-08-06T05:49:24.840Z,99.99
2023-08-06T05:50:24.789Z,99.99
2023-08-06T05:51:24.772Z,99.99
2023-08-06T05:52:24.766Z,99.99
2023-08-06T05:53:24.804Z,99.99
2023-08-06T05:54:24.755Z,99.99
2023-08-06T05:55:24.755Z,99.99
2023-08-06T05:56:24.741Z,99.99
2023-08-06T05:57:24.731Z,99.99
2023-08-06T05:58:24.737Z,99.99
2023-08-06T05:59:24.736Z,99.99
2023-08-06T06:00:24.673Z,99.99
2023-08-06T06:01:24.747Z,99.99
2023-08-06T06:02:24.728Z,99.99
2023-08-06T06:03:24.677Z,99.99
2023-08-06T06:04:24.627Z,99.99
2023-08-06T06:05:24.636Z,99.99
2023-08-06T06:06:24.629Z,99.99
2023-08-06T06:07:24.594Z,99.99
2023-08-06T06:08:24.586Z,99.99
2023-08-06T06:09:24.594Z,99.99
2023-08-06T06:10:24.567Z,99.99
2023-08-06T06:11:24.556Z,99.99
2023-08-06T06:12:24.536Z,99.99
2023-08-06T06:13:24.544Z,99.99
2023-08-06T06:14:24.522Z,99.99
2023-08-06T06:15:24.528Z,99.99
2023-08-06T06:16:24.561Z,99.99
2023-08-06T06:17:24.512Z,99.99
2023-08-06T06:18:24.483Z,99.99
2023-08-06T06:19:24.469Z,99.99
2023-08-06T06:20:24.477Z,99.99
2023-08-06T06:21:24.437Z,99.99
2023-08-06T06:22:24.463Z,99.99
2023-08-06T06:23:24.413Z,99.99
2023-08-06T06:24:24.407Z,99.99
2023-08-06T06:25:24.393Z,99.99
2023-08-06T06:26:24.389Z,99.99
2023-08-06T06:27:24.395Z,99.99
2023-08-06T06:28:24.388Z,99.99
2023-08-06T06:29:24.382Z,99.99
2023-08-06T06:30:24.335Z,99.99
2023-08-06T06:31:24.343Z,99.99
2023-08-06T06:32:24.336Z,99.99
2023-08-06T06:33:24.339Z,99.99
2023-08-06T06:34:24.302Z,99.99
2023-08-06T06:35:24.282Z,99.99
2023-08-06T06:36:24.273Z,99.99
2023-08-06T06:37:24.260Z,99.99
2023-08-06T06:38:24.248Z,99.99
2023-08-06T06:39:24.257Z,99.99
2023-08-06T06:40:24.248Z,99.99
2023-08-06T06:41:24.214Z,99.99
2023-08-06T06:42:24.205Z,99.99
2023-08-06T06:43:24.191Z,99.99
2023-08-06T06:44:24.196Z,99.99
2023-08-06T06:45:24.212Z,99.99
2023-08-06T06:46:24.188Z,99.99
2023-08-06T06:47:24.165Z,99.99
2023-08-06T06:48:24.132Z,99.99
2023-08-06T06:49:24.169Z,99.99
2023-08-06T06:50:24.112Z,99.99
2023-08-06T06:51:24.098Z,99.99
2023-08-06T06:52:24.116Z,99.99
2023-08-06T06:53:24.084Z,99.99
2023-08-06T06:54:24.092Z,99.99
2023-08-06T06:55:24.059Z,99.99
2023-08-06T06:56:24.058Z,99.99
2023-08-06T06:57:24.060Z,99.99
2023-08-06T06:58:24.026Z,99.99
2023-08-06T06:59:24.050Z,99.99
2023-08-06T07:00:24.007Z,99.99
2023-08-06T07:01:24.037Z,99.99
2023-08-06T07:02:23.996Z,99.99
2023-08-06T07:03:23.996Z,99.99
2023-08-06T07:04:23.978Z,99.99
2023-08-06T07:05:23.954Z,99.99
2023-08-06T07:06:23.936Z,99.99
2023-08-06T07:07:23.935Z,99.99
2023-08-06T07:08:23.918Z,99.99
2023-08-06T07:09:23.934Z,99.99
2023-08-06T07:10:23.889Z,99.99
2023-08-06T07:11:23.880Z,99.99
2023-08-06T07:12:23.874Z,99.99
2023-08-06T07:13:23.860Z,99.99
2023-08-06T07:14:23.870Z,99.99
2023-08-06T07:15:23.839Z,99.99
2023-08-06T07:16:23.848Z,99.99
2023-08-06T07:17:23.854Z,99.99
2023-08-06T07:18:23.797Z,99.99
2023-08-06T07:19:23.817Z,99.99
2023-08-06T07:20:23.784Z,99.99
2023-08-06T07:21:23.790Z,99.99
2023-08-06T07:22:23.753Z,99.99
2023-08-06T07:23:23.745Z,99.99
2023-08-06T07:24:23.763Z,99.99
2023-08-06T07:25:23.732Z,99.99
2023-08-06T07:26:23.716Z,99.99
2023-08-06T07:27:23.711Z,99.96
2023-08-06T07:28:23.685Z,99.99
2023-08-06T07:29:23.722Z,99.99
2023-08-06T07:30:23.700Z,99.99
2023-08-06T07:31:23.692Z,99.99
2023-08-06T07:32:23.673Z,99.99
2023-08-06T07:33:23.637Z,99.91
2023-08-06T07:34:23.624Z,99.32
2023-08-06T07:35:23.638Z,99.32
2023-08-06T07:36:23.657Z,98.66
2023-08-06T07:37:23.593Z,99.16
2023-08-06T07:38:23.580Z,99.67
2023-08-06T07:39:23.653Z,99.16
2023-08-06T07:40:23.574Z,98.82
2023-08-06T07:41:23.550Z,98.62
2023-08-06T07:42:23.537Z,98.42
2023-08-06T07:43:23.525Z,97.92
2023-08-06T07:44:23.528Z,97.41
2023-08-06T07:45:23.528Z,97.27
2023-08-06T07:46:23.542Z,96.17
2023-08-06T07:47:23.510Z,96.06
2023-08-06T07:48:23.474Z,95.56
2023-08-06T07:49:23.461Z,95.56
2023-08-06T07:50:23.469Z,92.85
2023-08-06T07:51:23.464Z,93.55
2023-08-06T07:52:23.440Z,94.36
2023-08-06T07:53:23.449Z,95.06
2023-08-06T07:54:23.401Z,94.92
2023-08-06T07:55:23.497Z,95.72
2023-08-06T07:56:23.404Z,95.87
2023-08-06T07:57:23.372Z,95.17
2023-08-06T07:58:23.355Z,94.67
2023-08-06T07:59:23.364Z,89.81
2023-08-06T08:00:23.369Z,92.01
2023-08-06T08:01:23.398Z,91.51
2023-08-06T08:02:23.346Z,91.91
2023-08-06T08:03:23.370Z,92.51
2023-08-06T08:04:23.328Z,93.21
2023-08-06T08:05:23.302Z,92.15
2023-08-06T08:06:23.268Z,90.55
2023-08-06T08:07:23.288Z,89.79
2023-08-06T08:08:23.247Z,91.30
2023-08-06T08:09:23.239Z,92.10
2023-08-06T08:10:23.282Z,90.99
2023-08-06T08:11:23.216Z,92.50
2023-08-06T08:12:23.219Z,93.90
2023-08-06T08:13:23.309Z,94.60
2023-08-06T08:14:23.178Z,94.51
2023-08-06T08:15:23.174Z,94.36
2023-08-06T08:16:23.225Z,94.46
2023-08-06T08:17:23.200Z,95.01
2023-08-06T08:18:24.466Z,92.81
2023-08-06T08:19:23.128Z,91.01
2023-08-06T08:20:23.116Z,88.30
2023-08-06T08:21:23.106Z,86.85
2023-08-06T08:22:23.088Z,88.36
2023-08-06T08:23:23.109Z,90.72
2023-08-06T08:24:23.069Z,89.32
2023-08-06T08:25:23.062Z,88.62
2023-08-06T08:26:23.057Z,88.71
2023-08-06T08:27:23.069Z,88.98
2023-08-06T08:28:23.029Z,89.18
2023-08-06T08:29:23.013Z,88.28
2023-08-06T08:30:23.046Z,86.87
2023-08-06T08:31:22.994Z,87.63
2023-08-06T08:32:22.985Z,86.83
2023-08-06T08:33:22.979Z,87.73
2023-08-06T08:34:22.958Z,87.99
2023-08-06T08:35:22.950Z,88.49
2023-08-06T08:36:22.977Z,89.35
2023-08-06T08:37:22.929Z,84.29
2023-08-06T08:38:22.920Z,83.49
2023-08-06T08:39:22.921Z,83.09
2023-08-06T08:40:22.894Z,85.79
2023-08-06T08:41:22.880Z,87.79
2023-08-06T08:42:22.894Z,88.89
2023-08-06T08:43:22.867Z,87.89
2023-08-06T08:44:22.844Z,87.19
2023-08-06T08:45:22.856Z,87.29
2023-08-06T08:46:22.882Z,88.19
2023-08-06T08:47:22.920Z,87.49
2023-08-06T08:48:22.801Z,87.09
2023-08-06T08:49:22.816Z,85.33
2023-08-06T08:50:22.782Z,83.97
2023-08-06T08:51:22.773Z,85.21
2023-08-06T08:52:22.756Z,86.82
2023-08-06T08:53:22.754Z,87.62
2023-08-06T08:54:22.757Z,88.52
2023-08-06T08:55:22.736Z,89.07
2023-08-06T08:56:22.720Z,88.57
2023-08-06T08:57:22.701Z,85.82
2023-08-06T08:58:22.698Z,87.02
2023-08-06T08:59:22.709Z,87.27
2023-08-06T09:00:22.666Z,85.31
2023-08-06T09:01:22.703Z,86.77
2023-08-06T09:02:22.688Z,84.01
2023-08-06T09:03:22.696Z,85.15
2023-08-06T09:04:22.625Z,85.10
2023-08-06T09:05:22.673Z,86.60
2023-08-06T09:06:29.290Z,87.46
2023-08-06T09:07:22.611Z,88.96
2023-08-06T09:08:22.577Z,89.22
2023-08-06T09:09:22.576Z,85.82
2023-08-06T09:10:22.578Z,87.02
2023-08-06T09:11:22.580Z,88.18
2023-08-06T09:12:22.533Z,88.68
2023-08-06T09:13:22.526Z,88.57
2023-08-06T09:14:22.516Z,85.57
2023-08-06T09:15:24.257Z,86.77
2023-08-06T09:16:22.585Z,86.18
2023-08-06T09:17:22.553Z,88.07
2023-08-06T09:18:22.468Z,87.48
2023-08-06T09:19:22.463Z,86.77
2023-08-06T09:20:22.449Z,87.12
2023-08-06T09:21:22.473Z,88.18
2023-08-06T09:22:22.422Z,89.07
2023-08-06T09:23:22.417Z,87.68
2023-08-06T09:24:22.427Z,87.07
2023-08-06T09:25:22.398Z,87.18
2023-08-06T09:26:22.420Z,88.48
2023-08-06T09:27:22.379Z,88.48
2023-08-06T09:28:22.362Z,88.83
2023-08-06T09:29:22.370Z,88.23
2023-08-06T09:30:22.336Z,87.39
2023-08-06T09:31:22.352Z,85.09
2023-08-06T09:32:22.424Z,84.89
2023-08-06T09:33:22.325Z,84.39
2023-08-06T09:34:22.297Z,83.59
2023-08-06T09:35:22.281Z,83.85
2023-08-06T09:36:22.268Z,84.35
2023-08-06T09:37:22.290Z,83.05
2023-08-06T09:38:22.271Z,82.25
2023-08-06T09:39:22.237Z,82.91
2023-08-06T09:40:22.226Z,82.47
2023-08-06T09:41:22.242Z,82.97
2023-08-06T09:42:22.201Z,81.13
2023-08-06T09:43:22.217Z,80.24
2023-08-06T09:44:22.185Z,81.60
2023-08-06T09:45:22.171Z,81.70
2023-08-06T09:46:22.180Z,80.90
2023-08-06T09:47:22.203Z,79.66
2023-08-06T09:48:22.137Z,80.92
2023-08-06T09:49:23.876Z,80.42
2023-08-06T09:50:22.117Z,81.22
2023-08-06T09:51:22.105Z,78.53
2023-08-06T09:52:22.096Z,78.60
2023-08-06T09:53:22.108Z,79.88
2023-08-06T09:55:23.146Z,81.19
2023-08-06T09:56:22.051Z,83.29
2023-08-06T09:57:22.036Z,82.13
2023-08-06T09:58:22.031Z,82.77
2023-08-06T09:59:22.036Z,83.37
2023-08-06T10:00:22.001Z,83.11
2023-08-06T10:01:22.041Z,83.31
2023-08-06T10:02:22.084Z,84.47
2023-08-06T10:03:22.184Z,85.53
2023-08-06T10:04:25.706Z,85.53
2023-08-06T10:05:21.990Z,85.19
2023-08-06T10:06:21.937Z,84.85
2023-08-06T10:07:21.931Z,84.11
2023-08-06T10:08:21.933Z,83.21
2023-08-06T10:09:21.909Z,81.67
2023-08-06T10:10:21.897Z,80.68
2023-08-06T10:11:21.915Z,81.24
2023-08-06T10:12:21.873Z,81.90
2023-08-06T10:13:21.866Z,81.49
2023-08-06T10:14:21.858Z,81.10
2023-08-06T10:15:21.843Z,80.86
2023-08-06T10:16:21.875Z,80.70
2023-08-06T10:17:21.841Z,79.38
2023-08-06T10:18:21.847Z,80.98
2023-08-06T10:19:21.822Z,81.73
2023-08-06T10:20:21.785Z,82.53
2023-08-06T10:21:21.800Z,82.09
2023-08-06T10:22:21.756Z,81.76
2023-08-06T10:23:21.757Z,79.00
2023-08-06T10:24:21.737Z,78.84
2023-08-06T10:25:21.745Z,79.48
2023-08-06T10:26:21.726Z,81.87
2023-08-06T10:27:21.735Z,82.97
2023-08-06T10:28:21.699Z,81.54
2023-08-06T10:29:21.701Z,82.29
2023-08-06T10:30:21.672Z,81.36
2023-08-06T10:31:21.712Z,78.41
2023-08-06T10:32:21.669Z,78.58
2023-08-06T10:33:21.678Z,79.41
2023-08-06T10:34:21.633Z,79.52
2023-08-06T10:35:21.624Z,80.59
2023-08-06T10:36:21.608Z,81.25
2023-08-06T10:37:21.608Z,78.55
2023-08-06T10:38:21.605Z,78.96
2023-08-06T10:39:31.061Z,78.36
2023-08-06T10:40:21.566Z,81.12
2023-08-06T10:41:21.549Z,80.77
2023-08-06T10:42:21.538Z,79.08
2023-08-06T10:43:21.551Z,78.88
2023-08-06T10:44:23.933Z,78.04
2023-08-06T10:45:21.508Z,77.68
2023-08-06T10:46:21.547Z,77.51
2023-08-06T10:47:21.509Z,79.25
2023-08-06T10:48:21.496Z,79.65
2023-08-06T10:49:21.455Z,80.35
2023-08-06T10:50:21.459Z,79.55
2023-08-06T10:51:21.448Z,79.25
2023-08-06T10:52:21.451Z,79.85
2023-08-06T10:53:21.450Z,79.85
2023-08-06T10:54:21.410Z,81.81
2023-08-06T10:55:21.393Z,81.67
2023-08-06T10:56:21.399Z,81.24
2023-08-06T10:57:21.371Z,79.96
2023-08-06T10:58:21.365Z,79.43
2023-08-06T10:59:21.385Z,78.45
2023-08-06T11:00:21.363Z,77.42
2023-08-06T11:01:21.378Z,77.05
2023-08-06T11:02:21.374Z,75.76
2023-08-06T11:03:21.406Z,75.03
2023-08-06T11:04:21.303Z,73.81
2023-08-06T11:05:21.325Z,76.00
2023-08-06T11:06:21.274Z,75.01
2023-08-06T11:07:22.391Z,76.76
2023-08-06T11:08:21.250Z,74.30
2023-08-06T11:09:21.236Z,75.57
2023-08-06T11:10:21.237Z,73.97
2023-08-06T11:11:21.254Z,75.90
2023-08-06T11:12:21.218Z,75.31
2023-08-06T11:13:21.197Z,75.60
2023-08-06T11:14:21.196Z,77.80
2023-08-06T11:15:21.181Z,74.80
2023-08-06T11:16:21.190Z,73.24
2023-08-06T11:17:21.185Z,70.81
2023-08-06T11:18:21.147Z,70.75
2023-08-06T11:19:21.164Z,69.23
2023-08-06T11:20:21.125Z,70.05
2023-08-06T11:21:21.113Z,70.09
2023-08-06T11:22:21.139Z,66.95
2023-08-06T11:23:21.092Z,69.06
2023-08-06T11:24:21.073Z,65.95
2023-08-06T11:25:21.065Z,64.97
2023-08-06T11:26:21.095Z,68.76
2023-08-06T11:27:21.037Z,68.40
2023-08-06T11:28:21.063Z,67.35
2023-08-06T11:29:21.069Z,64.02
2023-08-06T11:30:21.032Z,61.42
2023-08-06T11:31:21.054Z,62.70
2023-08-06T11:32:21.063Z,61.96
2023-08-06T11:33:20.976Z,64.86
2023-08-06T11:34:20.967Z,66.85
2023-08-06T11:35:20.979Z,67.31
2023-08-06T11:36:20.967Z,65.90
2023-08-06T11:37:20.936Z,66.09
2023-08-06T11:38:20.927Z,66.03
2023-08-06T11:39:20.920Z,67.35
2023-08-06T11:40:20.913Z,67.58
2023-08-06T11:41:20.921Z,67.64
2023-08-06T11:42:20.885Z,68.27
2023-08-06T11:43:20.872Z,68.40
2023-08-06T11:44:20.863Z,71.68
2023-08-06T11:45:20.857Z,72.61
2023-08-06T11:46:20.902Z,74.54
2023-08-06T11:47:20.851Z,73.51
2023-08-06T11:48:20.830Z,76.10
2023-08-06T11:49:20.812Z,76.30
2023-08-06T11:50:20.799Z,74.84
2023-08-06T11:51:20.788Z,75.14
2023-08-06T11:52:20.839Z,76.04
2023-08-06T11:53:20.767Z,75.54
2023-08-06T11:54:20.811Z,75.48
2023-08-06T11:55:20.746Z,75.21
2023-08-06T11:56:20.737Z,77.14
2023-08-06T11:57:20.724Z,78.24
2023-08-06T11:58:20.736Z,76.58
2023-08-06T11:59:20.708Z,78.52
2023-08-06T12:00:20.699Z,79.82
2023-08-06T12:01:20.716Z,79.52
2023-08-06T12:02:20.663Z,79.72
2023-08-06T12:03:20.678Z,79.22
2023-08-06T12:04:20.708Z,79.32
2023-08-06T12:05:20.696Z,76.95
2023-08-06T12:06:20.627Z,77.69
2023-08-06T12:07:20.620Z,79.89
2023-08-06T12:08:20.629Z,80.09
2023-08-06T12:09:20.612Z,79.59
2023-08-06T12:10:20.596Z,79.96
2023-08-06T12:11:20.562Z,79.61
2023-08-06T12:12:20.557Z,78.81
2023-08-06T12:13:20.559Z,79.17
2023-08-06T12:14:20.538Z,79.38
2023-08-06T12:15:20.535Z,78.68
2023-08-06T12:16:20.646Z,78.68
2023-08-06T12:17:20.584Z,79.48
2023-08-06T12:18:20.509Z,78.68
2023-08-06T12:19:20.481Z,77.72
2023-08-06T12:20:20.497Z,79.82
2023-08-06T12:21:20.450Z,80.41
2023-08-06T12:22:21.977Z,79.61
2023-08-06T12:23:20.463Z,79.75
2023-08-06T12:24:20.421Z,80.21
2023-08-06T12:25:20.406Z,80.58
2023-08-06T12:26:20.420Z,80.74
2023-08-06T12:27:20.400Z,79.44
2023-08-06T12:28:22.091Z,79.44
2023-08-06T12:29:20.387Z,78.70
2023-08-06T12:30:20.434Z,79.00
2023-08-06T12:31:20.346Z,78.56
2023-08-06T12:32:20.344Z,78.67
2023-08-06T12:33:20.329Z,79.03
2023-08-06T12:34:23.248Z,78.07
2023-08-06T12:35:20.298Z,77.83
2023-08-06T12:36:20.287Z,77.17
2023-08-06T12:37:20.551Z,78.07
2023-08-06T12:38:20.268Z,77.31
2023-08-06T12:39:20.262Z,77.01
2023-08-06T12:40:35.446Z,77.61
2023-08-06T12:41:20.253Z,77.91
2023-08-06T12:42:20.316Z,77.91
2023-08-06T12:43:20.213Z,78.70
2023-08-06T12:44:20.216Z,79.20
2023-08-06T12:45:20.194Z,79.04
2023-08-06T12:46:20.239Z,79.34
2023-08-06T12:47:20.231Z,80.34
2023-08-06T12:48:20.194Z,80.54
2023-08-06T12:49:20.172Z,80.80
2023-08-06T12:50:20.154Z,81.30
2023-08-06T12:51:20.122Z,81.26
2023-08-06T12:52:20.117Z,80.96
2023-08-06T12:53:20.107Z,81.32